Terminal Aerodrome Forecast
Issued by NWS North Platte, NE

Home | Current Version | Previous Version | Graphics & Text | Print | Product List | Glossary On
Versions: 1 2 3 4 5 6 7 8 9 10 11 12 13 14 15 16 17 18 19 20 21 22
000
FTUS43 KLBF 040500
TAFVTN
TAF
KVTN 040520Z 0406/0506 VRB06KT P6SM SKC
     FM041400 17012G19KT P6SM SCT200
     FM041800 17014G22KT P6SM SCT080 BKN150
     FM042300 16013G19KT P6SM VCTS BKN070CB OVC150
     FM050300 14011KT P6SM BKN150=

USA.gov is the U.S. government's official web portal to all federal, state and local government web resources and services.